Time;durP1;ratioP1;P1;durP2;ratioP2;P2;SDS_P1;SDS_P2;PMS_P1;PMS_P2;Temp;Humidity;BMP_temperature;BMP_pressure;BME280_temperature;BME280_humidity;BME280_pressure;Samples;Min_cycle;Max_cycle;Signal;HPM_P1;HPM_P2
2021/10/14 00:00:12;;;;;;;;;54.25;42.50;;;;;9.87;71.75;102604.88;5037305;28;45960;-70
2021/10/14 00:02:37;;;;;;;;;59.00;45.25;;;;;9.92;71.45;102614.44;5036206;28;45468;-70
2021/10/14 00:05:04;;;;;;;;;56.75;44.50;;;;;9.90;71.69;102616.19;5036426;28;45476;-70
2021/10/14 00:07:29;;;;;;;;;53.50;43.25;;;;;9.90;71.93;102618.81;5036499;28;46267;-71
2021/10/14 00:09:55;;;;;;;;;55.50;43.00;;;;;9.89;71.81;102614.44;5041047;28;45402;-70
2021/10/14 00:12:20;;;;;;;;;48.00;39.25;;;;;9.88;71.97;102619.72;5036638;28;45403;-70
2021/10/14 00:14:46;;;;;;;;;55.33;42.33;;;;;9.87;71.68;102615.38;5036230;28;46130;-70
2021/10/14 00:17:11;;;;;;;;;39.25;37.00;;;;;9.83;71.63;102609.25;5035983;28;45577;-70
2021/10/14 00:19:37;;;;;;;;;60.00;43.00;;;;;9.86;71.76;102618.84;5035500;28;45714;-70
2021/10/14 00:22:03;;;;;;;;;52.00;42.00;;;;;9.85;71.63;102622.38;5036731;28;49348;-70
2021/10/14 00:24:28;;;;;;;;;44.75;39.75;;;;;9.85;71.75;102622.38;5034653;28;45322;-70
2021/10/14 00:26:53;;;;;;;;;54.00;42.25;;;;;9.84;71.59;102615.38;5035497;28;45540;-70
2021/10/14 00:29:18;;;;;;;;;57.00;45.00;;;;;9.83;71.60;102621.53;5035937;28;45385;-70
2021/10/14 00:31:44;;;;;;;;;59.25;45.50;;;;;9.80;71.69;102617.16;5036571;28;45312;-70
2021/10/14 00:34:09;;;;;;;;;57.00;42.00;;;;;9.78;71.57;102618.06;5035922;28;45591;-70
2021/10/14 00:36:34;;;;;;;;;61.00;47.00;;;;;9.75;72.09;102623.34;5035081;28;62806;-70
2021/10/14 00:39:00;;;;;;;;;54.50;42.50;;;;;9.72;72.06;102612.88;5035979;28;45269;-70
2021/10/14 00:41:25;;;;;;;;;56.00;43.25;;;;;9.69;71.82;102616.41;5030672;28;45341;-70
2021/10/14 00:43:58;;;;;;;;;55.25;40.75;;;;;9.68;71.95;102617.28;5025250;28;47190;-70
2021/10/14 00:46:24;;;;;;;;;59.50;44.00;;;;;9.66;72.48;102622.56;5020757;28;46026;-70
2021/10/14 00:48:50;;;;;;;;;58.50;42.50;;;;;9.65;72.00;102620.78;5035768;28;45898;-70
2021/10/14 00:51:15;;;;;;;;;50.75;39.75;;;;;9.64;72.14;102621.69;5035784;28;45518;-70
2021/10/14 00:53:41;;;;;;;;;56.25;41.00;;;;;9.62;72.40;102623.47;5010468;28;45254;-70
2021/10/14 00:56:07;;;;;;;;;52.50;43.50;;;;;9.62;72.11;102612.97;5032640;28;45277;-70
2021/10/14 00:58:37;;;;;;;;;50.50;41.00;;;;;9.60;72.18;102617.34;5022978;28;45561;-70
2021/10/14 01:01:04;;;;;;;;;58.00;44.00;;;;;9.57;72.33;102608.63;5035817;28;45494;-70
2021/10/14 01:03:31;;;;;;;;;28.50;26.75;;;;;9.48;72.28;102599.06;5034219;28;45496;-70
2021/10/14 01:05:57;;;;;;;;;50.50;42.75;;;;;9.53;72.58;102613.03;5035164;28;46164;-70
2021/10/14 01:08:22;;;;;;;;;64.00;45.25;;;;;9.51;72.56;102604.31;5039467;28;45857;-70
2021/10/14 01:10:48;;;;;;;;;53.75;43.50;;;;;9.44;72.40;102589.47;5034628;28;45493;-71
2021/10/14 01:13:13;;;;;;;;;51.33;43.00;;;;;9.49;72.39;102589.44;5035348;28;45404;-70
2021/10/14 01:15:39;;;;;;;;;54.50;43.00;;;;;9.47;72.26;102588.59;5035768;28;46079;-70
2021/10/14 01:18:04;;;;;;;;;53.00;41.25;;;;;9.46;72.04;102589.50;5035199;28;45534;-70
2021/10/14 01:20:29;;;;;;;;;57.00;44.00;;;;;9.46;72.00;102592.13;5029582;28;46509;-70
2021/10/14 01:22:55;;;;;;;;;55.50;43.00;;;;;9.39;72.42;102578.16;5034051;28;45756;-70
2021/10/14 01:25:21;;;;;;;;;56.50;42.50;;;;;9.41;72.46;102582.53;5029177;28;45533;-70
2021/10/14 01:27:48;;;;;;;;;55.00;43.50;;;;;9.44;72.28;102589.47;5035052;28;45358;-70
2021/10/14 01:30:14;;;;;;;;;61.75;43.75;;;;;9.41;72.45;102587.78;5035767;28;45513;-70
2021/10/14 01:32:40;;;;;;;;;54.00;44.50;;;;;9.38;72.34;102589.53;5034330;28;45570;-70
2021/10/14 01:35:06;;;;;;;;;55.00;43.00;;;;;9.37;72.45;102587.81;5006750;28;47138;-70
2021/10/14 01:37:32;;;;;;;;;58.00;44.00;;;;;9.36;72.59;102583.44;5013967;28;45746;-70
2021/10/14 01:39:59;;;;;;;;;48.00;41.50;;;;;9.33;72.67;102583.47;5018999;28;45466;-70
2021/10/14 01:42:25;;;;;;;;;52.50;39.75;;;;;9.30;72.57;102588.75;5035684;28;45908;-70
2021/10/14 01:44:50;;;;;;;;;55.25;41.50;;;;;9.30;72.73;102583.50;5035229;28;45398;-70
2021/10/14 01:47:15;;;;;;;;;54.25;41.75;;;;;9.28;72.67;102580.88;5033677;28;45319;-70
2021/10/14 01:49:41;;;;;;;;;50.25;40.50;;;;;9.25;72.72;102573.03;5034806;28;45481;-70
2021/10/14 01:52:06;;;;;;;;;50.00;42.00;;;;;9.25;72.84;102583.53;5034806;28;48557;-70
2021/10/14 01:54:31;;;;;;;;;52.67;42.00;;;;;9.17;72.96;102568.72;5034735;28;53897;-70
2021/10/14 01:56:57;;;;;;;;;57.67;46.33;;;;;9.17;72.96;102574.84;5024913;28;55044;-70
2021/10/14 01:59:22;;;;;;;;;50.25;40.75;;;;;9.19;73.09;102580.06;5031326;28;45378;-70
2021/10/14 02:01:47;;;;;;;;;47.75;38.50;;;;;9.18;72.50;102573.09;5035043;28;45493;-70
2021/10/14 02:04:13;;;;;;;;;54.25;44.25;;;;;9.15;72.87;102566.13;5034860;28;46069;-70
2021/10/14 02:06:38;;;;;;;;;37.50;31.00;;;;;9.11;72.90;102573.13;5035217;28;45426;-70
2021/10/14 02:09:03;;;;;;;;;59.50;44.25;;;;;9.05;73.34;102565.31;5014329;28;45466;-70
2021/10/14 02:11:29;;;;;;;;;55.67;43.67;;;;;9.08;72.90;102564.41;5029270;28;45416;-70
2021/10/14 02:13:54;;;;;;;;;54.50;42.75;;;;;9.06;73.19;102567.06;5033926;28;45404;-71
2021/10/14 02:16:19;;;;;;;;;31.75;31.75;;;;;9.05;73.24;102570.56;5034616;28;45553;-70
2021/10/14 02:18:45;;;;;;;;;50.00;38.50;;;;;9.05;73.03;102569.69;5034627;28;45335;-70
2021/10/14 02:21:10;;;;;;;;;50.75;41.00;;;;;9.03;73.59;102567.09;5034259;28;45344;-70
2021/10/14 02:23:35;;;;;;;;;43.25;40.00;;;;;8.99;73.39;102565.38;5034015;28;46003;-70
2021/10/14 02:26:01;;;;;;;;;56.00;40.75;;;;;8.95;73.51;102555.78;5034179;28;47798;-70
2021/10/14 02:28:26;;;;;;;;;48.00;40.00;;;;;8.83;73.54;102542.75;5034498;28;45485;-70
2021/10/14 02:30:52;;;;;;;;;36.75;33.75;;;;;8.87;73.40;102552.31;5034944;28;45344;-70
2021/10/14 02:33:17;;;;;;;;;48.00;38.75;;;;;8.89;73.85;102554.06;5034599;28;45493;-70
2021/10/14 02:35:42;;;;;;;;;46.75;39.00;;;;;8.88;73.58;102559.34;5034163;28;45383;-70
2021/10/14 02:38:08;;;;;;;;;49.50;40.00;;;;;8.88;73.90;102560.22;5033637;28;45447;-70
2021/10/14 02:40:33;;;;;;;;;45.25;37.00;;;;;8.89;73.46;102559.31;5033760;28;45464;-70
2021/10/14 02:42:59;;;;;;;;;47.75;39.75;;;;;8.88;73.51;102559.34;5033889;28;45573;-70
2021/10/14 02:45:24;;;;;;;;;46.25;40.00;;;;;8.88;73.84;102554.09;5034340;28;45528;-70
2021/10/14 02:47:50;;;;;;;;;46.25;40.50;;;;;8.86;73.28;102561.06;5033458;28;45573;-70
2021/10/14 02:50:15;;;;;;;;;47.00;37.33;;;;;8.84;73.48;102560.22;5033362;28;45530;-70
2021/10/14 02:52:40;;;;;;;;;52.67;38.00;;;;;8.82;73.51;102555.00;5032856;28;45426;-70
2021/10/14 02:55:06;;;;;;;;;45.00;37.50;;;;;8.81;73.60;102560.25;5036564;28;45483;-70
2021/10/14 02:57:32;;;;;;;;;49.75;40.00;;;;;8.80;73.45;102563.75;5032969;28;45339;-70
2021/10/14 02:59:57;;;;;;;;;43.00;37.75;;;;;8.81;73.60;102558.47;5033466;28;45432;-70
2021/10/14 03:02:22;;;;;;;;;48.50;37.00;;;;;8.80;73.60;102551.50;5014968;28;57253;-70
2021/10/14 03:04:48;;;;;;;;;47.33;39.67;;;;;8.80;73.67;102558.50;5033447;28;45228;-70
2021/10/14 03:07:13;;;;;;;;;41.50;37.00;;;;;8.71;73.55;102540.19;5033069;28;45440;-70
2021/10/14 03:09:39;;;;;;;;;38.25;36.50;;;;;8.75;73.18;102555.91;5033688;28;45507;-70
2021/10/14 03:12:05;;;;;;;;;42.00;33.50;;;;;8.76;73.89;102557.63;5023400;28;45840;-70
2021/10/14 03:14:30;;;;;;;;;44.25;38.50;;;;;8.73;73.61;102556.81;5032137;28;45304;-70
2021/10/14 03:16:55;;;;;;;;;44.33;37.00;;;;;8.71;74.04;102558.56;5029291;28;45439;-70
2021/10/14 03:19:20;;;;;;;;;42.00;37.25;;;;;8.69;73.88;102557.69;5032780;28;45270;-70
2021/10/14 03:21:46;;;;;;;;;42.67;34.00;;;;;8.67;73.54;102556.84;5033494;28;59431;-70
2021/10/14 03:24:11;;;;;;;;;40.00;34.00;;;;;8.63;73.66;102556.84;5033395;28;45374;-70
2021/10/14 03:26:36;;;;;;;;;33.00;31.25;;;;;8.63;73.37;102556.84;5033266;28;47563;-70
2021/10/14 03:29:02;;;;;;;;;43.67;36.67;;;;;8.64;74.04;102560.34;5033722;28;46689;-70
2021/10/14 03:31:27;;;;;;;;;37.25;31.50;;;;;8.63;73.84;102558.63;5033113;28;46033;-70
2021/10/14 03:33:53;;;;;;;;;36.50;31.00;;;;;8.62;73.52;102560.38;5033367;28;45462;-70
2021/10/14 03:36:18;;;;;;;;;34.25;29.25;;;;;8.62;73.65;102564.75;5033444;28;45767;-70
2021/10/14 03:38:43;;;;;;;;;32.00;29.75;;;;;8.62;73.44;102565.59;5032821;28;49237;-70
2021/10/14 03:41:09;;;;;;;;;36.75;27.25;;;;;8.59;73.95;102563.00;5032786;28;45429;-70
2021/10/14 03:43:34;;;;;;;;;31.00;27.00;;;;;8.51;73.45;102551.69;5033102;28;45422;-70
2021/10/14 03:45:59;;;;;;;;;26.25;26.25;;;;;8.51;73.80;102553.41;5033696;28;45406;-71
2021/10/14 03:48:25;;;;;;;;;30.50;27.50;;;;;8.52;73.68;102561.28;5033377;28;45331;-71
2021/10/14 03:50:50;;;;;;;;;25.75;19.50;;;;;8.49;73.86;102558.69;5032074;28;45497;-71
2021/10/14 03:53:15;;;;;;;;;27.50;24.75;;;;;8.45;73.83;102551.69;5032664;28;45553;-71
2021/10/14 03:55:40;;;;;;;;;21.25;18.25;;;;;8.50;73.69;102563.03;5033046;28;45472;-71
2021/10/14 03:58:06;;;;;;;;;29.25;24.25;;;;;8.47;73.79;102564.81;5046757;28;45397;-71
2021/10/14 04:00:31;;;;;;;;;31.25;28.50;;;;;8.44;73.67;102557.81;5018813;28;46899;-71
2021/10/14 04:02:56;;;;;;;;;23.33;19.33;;;;;8.38;73.41;102555.25;5034165;28;52607;-71
2021/10/14 04:05:22;;;;;;;;;29.25;23.75;;;;;8.41;73.52;102560.47;5031885;28;45620;-71
2021/10/14 04:07:47;;;;;;;;;30.25;22.50;;;;;8.46;73.67;102568.31;5032130;28;45501;-71
2021/10/14 04:10:14;;;;;;;;;28.25;24.75;;;;;8.45;73.93;102570.03;5032768;28;49506;-71
2021/10/14 04:12:40;;;;;;;;;25.25;22.25;;;;;8.45;73.29;102577.91;5035423;28;45913;-71
2021/10/14 04:15:06;;;;;;;;;27.75;25.00;;;;;8.32;73.56;102553.50;5035737;28;45574;-71
2021/10/14 04:17:31;;;;;;;;;32.25;28.50;;;;;8.44;73.27;102572.69;5031419;28;45345;-71
2021/10/14 04:19:57;;;;;;;;;28.25;23.25;;;;;8.44;73.63;102575.31;5033490;28;45655;-70
2021/10/14 04:22:22;;;;;;;;;29.75;27.00;;;;;8.42;73.12;102569.22;5035068;28;45512;-70
2021/10/14 04:24:48;;;;;;;;;28.25;23.50;;;;;8.34;73.65;102567.44;5038082;28;45528;-71
2021/10/14 04:27:14;;;;;;;;;33.25;28.75;;;;;8.40;73.93;102577.06;5054625;28;45390;-71
2021/10/14 04:29:39;;;;;;;;;25.75;24.50;;;;;8.33;74.08;102572.69;5036014;28;47182;-71
2021/10/14 04:32:08;;;;;;;;;33.50;27.50;;;;;8.38;73.81;102578.81;5034961;28;47239;-71
2021/10/14 04:34:34;;;;;;;;;33.25;31.00;;;;;8.37;74.05;102571.84;5035785;28;45713;-70
2021/10/14 04:37:01;;;;;;;;;36.50;30.25;;;;;8.35;73.90;102577.06;5034411;28;45531;-71
2021/10/14 04:39:26;;;;;;;;;31.25;28.50;;;;;8.34;73.78;102580.53;5036267;28;45670;-70
2021/10/14 04:41:52;;;;;;;;;27.75;25.00;;;;;8.34;73.81;102582.28;5040673;28;56543;-71
2021/10/14 04:44:17;;;;;;;;;29.00;27.00;;;;;8.32;73.92;102573.56;5027747;28;45573;-70
2021/10/14 04:46:42;;;;;;;;;31.75;23.75;;;;;8.27;73.97;102572.72;5046513;28;45482;-71
2021/10/14 04:49:08;;;;;;;;;31.00;25.25;;;;;8.28;73.43;102579.69;5035002;28;46109;-71
2021/10/14 04:51:33;;;;;;;;;26.75;26.75;;;;;8.16;73.43;102558.81;5038283;28;45454;-71
2021/10/14 04:53:58;;;;;;;;;28.00;25.00;;;;;8.19;73.69;102562.25;5007297;28;45887;-71
2021/10/14 04:56:24;;;;;;;;;33.75;28.75;;;;;8.21;74.16;102571.00;5025291;28;45587;-70
2021/10/14 04:58:49;;;;;;;;;35.50;26.25;;;;;8.24;73.66;102581.44;5017776;28;46342;-70
2021/10/14 05:01:14;;;;;;;;;34.67;27.33;;;;;8.24;74.01;102585.81;5036377;28;45441;-71
2021/10/14 05:03:40;;;;;;;;;29.67;25.00;;;;;8.22;73.77;102579.72;5042123;28;45587;-70
2021/10/14 05:06:05;;;;;;;;;20.25;19.75;;;;;8.14;73.86;102563.16;5034889;28;45582;-70
2021/10/14 05:08:31;;;;;;;;;23.50;21.50;;;;;8.20;74.22;102576.25;5037036;28;47253;-70
2021/10/14 05:10:56;;;;;;;;;28.75;22.00;;;;;8.21;74.05;102578.00;5030778;28;45408;-70
2021/10/14 05:13:21;;;;;;;;;27.00;24.75;;;;;8.16;73.99;102566.66;5035688;28;45441;-70
2021/10/14 05:15:46;;;;;;;;;28.67;26.67;;;;;8.17;74.27;102577.13;5034770;28;46259;-70
2021/10/14 05:18:12;;;;;;;;;27.50;21.75;;;;;8.14;74.05;102574.50;5033326;28;53161;-70
2021/10/14 05:20:37;;;;;;;;;33.00;25.75;;;;;8.17;73.89;102589.34;5034337;28;46373;-70
2021/10/14 05:23:02;;;;;;;;;22.00;21.50;;;;;8.18;73.73;102586.72;5033484;28;45630;-71
2021/10/14 05:25:28;;;;;;;;;32.00;24.00;;;;;8.18;74.27;102593.69;5040109;28;45970;-71
2021/10/14 05:27:53;;;;;;;;;30.25;22.75;;;;;8.13;73.86;102590.22;5035939;28;46205;-71
2021/10/14 05:30:20;;;;;;;;;18.25;14.00;;;;;8.15;73.84;102591.97;5035474;28;45376;-70
2021/10/14 05:32:45;;;;;;;;;29.75;23.75;;;;;8.15;74.00;102589.38;5034119;28;45264;-71
2021/10/14 05:35:11;;;;;;;;;23.75;22.25;;;;;8.16;73.99;102592.84;5017234;28;45571;-71
2021/10/14 05:37:36;;;;;;;;;30.50;24.00;;;;;8.09;74.06;102582.41;5035279;28;45419;-71
2021/10/14 05:40:03;;;;;;;;;36.75;24.25;;;;;8.15;74.12;102588.50;5034070;28;45621;-71
2021/10/14 05:42:29;;;;;;;;;32.00;25.00;;;;;8.13;74.28;102585.84;5032897;28;45510;-71
2021/10/14 05:44:54;;;;;;;;;25.33;22.67;;;;;8.13;74.07;102585.84;5033620;28;51203;-71
2021/10/14 05:47:19;;;;;;;;;32.67;22.67;;;;;8.13;74.23;102585.00;5031922;28;46090;-71
2021/10/14 05:49:45;;;;;;;;;24.50;24.25;;;;;8.13;74.11;102585.84;5034090;28;45488;-71
2021/10/14 05:52:10;;;;;;;;;35.25;30.00;;;;;8.11;73.85;102585.88;5034920;28;45323;-70
2021/10/14 05:54:35;;;;;;;;;27.00;22.25;;;;;8.08;73.90;102579.75;5034876;28;45431;-71
2021/10/14 05:57:01;;;;;;;;;29.50;26.00;;;;;8.05;74.24;102571.94;5034791;28;45478;-71
2021/10/14 05:59:26;;;;;;;;;27.75;22.00;;;;;8.08;74.38;102588.50;5034670;28;45396;-72
2021/10/14 06:01:51;;;;;;;;;28.75;25.25;;;;;8.09;74.25;102579.78;5033620;28;45710;-70
2021/10/14 06:04:17;;;;;;;;;28.50;26.25;;;;;8.07;74.33;102576.28;5033295;28;45362;-71
2021/10/14 06:06:42;;;;;;;;;28.25;23.25;;;;;8.09;74.63;102574.53;5035159;28;46084;-71
2021/10/14 06:09:08;;;;;;;;;30.25;24.50;;;;;8.11;74.23;102585.88;5034636;28;45739;-71
2021/10/14 06:11:33;;;;;;;;;32.75;28.50;;;;;8.09;74.48;102581.50;5034233;28;45441;-70
2021/10/14 06:13:58;;;;;;;;;30.00;27.00;;;;;8.03;74.42;102571.91;5033518;28;45495;-71
2021/10/14 06:16:23;;;;;;;;;29.00;24.25;;;;;8.09;74.17;102581.50;5034352;28;46521;-71
2021/10/14 06:18:49;;;;;;;;;26.33;24.00;;;;;8.11;74.20;102583.25;5035097;28;45335;-71
2021/10/14 06:21:15;;;;;;;;;27.25;21.75;;;;;8.14;74.33;102581.50;5034614;28;45531;-71
2021/10/14 06:23:40;;;;;;;;;24.50;22.00;;;;;8.15;74.59;102578.88;5034331;28;45555;-71
2021/10/14 06:26:05;;;;;;;;;26.50;22.25;;;;;8.17;74.59;102584.13;5034146;28;46312;-71
2021/10/14 06:28:31;;;;;;;;;31.75;25.25;;;;;8.19;74.77;102579.72;5034302;28;45494;-71
2021/10/14 06:30:56;;;;;;;;;36.50;27.75;;;;;8.18;74.30;102575.38;5033177;28;45318;-71
2021/10/14 06:33:21;;;;;;;;;30.50;28.00;;;;;8.24;74.31;102584.06;5034503;28;45429;-71
2021/10/14 06:35:47;;;;;;;;;32.75;27.50;;;;;7.98;74.52;102526.56;5034116;28;46004;-71
2021/10/14 06:38:12;;;;;;;;;37.75;28.50;;;;;8.34;74.50;102580.53;5032284;28;45826;-72
2021/10/14 06:40:37;;;;;;;;;38.50;27.25;;;;;8.39;74.60;102587.53;5033674;28;45476;-71
2021/10/14 06:43:03;;;;;;;;;35.00;27.33;;;;;8.31;74.59;102564.84;5033874;28;45380;-71
2021/10/14 06:45:28;;;;;;;;;31.75;26.75;;;;;8.49;74.78;102587.50;5034056;28;46117;-71
2021/10/14 06:47:54;;;;;;;;;38.50;30.25;;;;;8.55;74.85;102586.59;5032900;28;45431;-71
2021/10/14 06:50:19;;;;;;;;;32.75;26.50;;;;;8.62;74.97;102580.47;5033988;28;45367;-71
2021/10/14 06:52:44;;;;;;;;;34.75;28.00;;;;;8.70;74.91;102578.66;5033623;28;45358;-71
2021/10/14 06:55:10;;;;;;;;;40.00;33.33;;;;;8.80;74.62;102579.47;5033166;28;45492;-71
2021/10/14 06:57:36;;;;;;;;;34.75;28.00;;;;;8.92;74.83;102589.00;5034298;28;45412;-71
2021/10/14 07:00:05;;;;;;;;;36.25;33.50;;;;;9.06;74.59;102587.16;5033313;28;45366;-71
2021/10/14 07:02:30;;;;;;;;;37.75;32.25;;;;;9.27;74.49;102573.03;5032861;28;45447;-71
2021/10/14 07:04:56;;;;;;;;;42.75;37.25;;;;;9.51;74.43;102580.69;5033059;28;45560;-71
2021/10/14 07:07:21;;;;;;;;;44.50;36.50;;;;;9.85;74.15;102586.47;5015000;28;45510;-71
2021/10/14 07:09:46;;;;;;;;;42.00;34.67;;;;;10.15;73.11;102584.41;5034111;28;45339;-71
2021/10/14 07:12:12;;;;;;;;;46.33;36.67;;;;;10.55;73.03;102579.56;5032782;28;45375;-71
2021/10/14 07:14:38;;;;;;;;;44.50;34.00;;;;;11.27;72.36;102575.84;5033538;28;45899;-71
2021/10/14 07:17:04;;;;;;;;;39.75;33.25;;;;;12.40;71.83;102572.88;5033192;28;45372;-71
2021/10/14 07:19:30;;;;;;;;;40.25;36.25;;;;;12.98;69.18;102579.47;5033816;28;45351;-71
2021/10/14 07:21:55;;;;;;;;;47.00;35.25;;;;;13.34;68.30;102579.53;5033765;28;45515;-71
2021/10/14 07:24:21;;;;;;;;;40.75;32.25;;;;;13.92;67.58;102573.56;5033576;28;46723;-71
2021/10/14 07:26:46;;;;;;;;;37.25;32.50;;;;;14.78;66.50;102571.97;5032090;28;45551;-71
2021/10/14 07:29:12;;;;;;;;;44.50;36.25;;;;;15.63;64.42;102559.47;5033391;28;45353;-71
2021/10/14 07:31:38;;;;;;;;;44.25;36.00;;;;;16.84;63.34;102561.13;5033656;28;45465;-71
2021/10/14 07:34:04;;;;;;;;;39.00;32.75;;;;;18.44;61.18;102563.91;5032345;28;45963;-71
2021/10/14 07:36:29;;;;;;;;;37.00;32.00;;;;;20.00;58.57;102553.44;5031327;28;45631;-71
2021/10/14 07:38:54;;;;;;;;;46.75;34.75;;;;;21.44;56.24;102557.81;5032605;28;45324;-72
2021/10/14 07:41:20;;;;;;;;;36.50;32.50;;;;;22.74;53.89;102560.38;5032934;28;45531;-71
2021/10/14 07:43:45;;;;;;;;;40.00;32.00;;;;;23.92;51.72;102555.97;5032793;28;45316;-71
2021/10/14 07:46:10;;;;;;;;;33.50;31.50;;;;;25.04;49.63;102545.97;5036136;28;45525;-71
2021/10/14 07:48:36;;;;;;;;;37.25;34.25;;;;;26.03;47.70;102549.03;5036988;28;45300;-71
2021/10/14 07:51:03;;;;;;;;;37.00;32.50;;;;;26.84;46.05;102549.66;5035857;28;45369;-71
2021/10/14 07:53:29;;;;;;;;;33.75;30.25;;;;;27.63;44.69;102542.03;5036129;28;46045;-72
2021/10/14 07:55:54;;;;;;;;;37.25;30.25;;;;;28.26;42.86;102541.91;5035491;28;45425;-72
2021/10/14 07:58:19;;;;;;;;;36.00;32.50;;;;;28.76;41.89;102547.28;5036773;28;45392;-72
2021/10/14 08:00:45;;;;;;;;;42.00;31.00;;;;;29.41;40.40;102550.28;5037126;28;45327;-72
2021/10/14 08:03:11;;;;;;;;;40.50;33.25;;;;;30.08;40.04;102551.97;5036283;28;46064;-73
2021/10/14 08:05:36;;;;;;;;;37.75;31.00;;;;;30.68;37.98;102555.03;5035018;28;45927;-71
2021/10/14 08:08:02;;;;;;;;;38.75;33.00;;;;;31.33;37.39;102544.84;5036270;28;45395;-72
2021/10/14 08:10:28;;;;;;;;;37.75;33.00;;;;;32.09;36.96;102552.25;5036453;28;45513;-72
2021/10/14 08:12:54;;;;;;;;;36.50;32.00;;;;;32.68;35.98;102545.00;5036017;28;46213;-72
2021/10/14 08:15:19;;;;;;;;;40.75;33.00;;;;;33.30;33.97;102555.41;5041514;28;51284;-72
2021/10/14 08:17:44;;;;;;;;;38.00;32.50;;;;;33.86;33.16;102555.50;5040918;28;45246;-72
2021/10/14 08:20:10;;;;;;;;;41.00;33.00;;;;;34.31;32.75;102545.78;5036349;28;45540;-71
2021/10/14 08:22:36;;;;;;;;;43.25;34.50;;;;;34.87;31.93;102552.75;5036609;28;45454;-72
2021/10/14 08:25:09;;;;;;;;;41.75;33.50;;;;;35.38;31.29;102547.56;5036096;28;45328;-72
2021/10/14 08:27:35;;;;;;;;;36.75;32.00;;;;;35.99;30.24;102552.94;5035871;28;45357;-72
2021/10/14 08:30:02;;;;;;;;;34.25;30.00;;;;;36.48;29.76;102552.28;5036042;28;46041;-72
2021/10/14 08:32:28;;;;;;;;;42.00;34.00;;;;;36.92;29.44;102563.09;5035460;28;45934;-73
2021/10/14 08:34:55;;;;;;;;;37.25;32.00;;;;;37.30;28.72;102552.66;5034717;28;45494;-72
2021/10/14 08:37:23;;;;;;;;;31.25;29.25;;;;;37.75;28.06;102549.59;5020670;28;45581;-72
2021/10/14 08:39:50;;;;;;;;;35.25;29.25;;;;;38.40;27.29;102555.63;5036515;28;45435;-73
2021/10/14 08:42:16;;;;;;;;;36.75;30.75;;;;;38.74;26.25;102539.03;5036181;28;46429;-72
2021/10/14 08:44:41;;;;;;;;;35.50;32.50;;;;;39.20;26.09;102551.13;5036274;28;45562;-72
2021/10/14 08:47:07;;;;;;;;;36.25;30.75;;;;;39.56;25.32;102562.47;5035314;28;45545;-72
2021/10/14 08:49:33;;;;;;;;;33.50;29.75;;;;;39.83;24.84;102554.19;5035913;28;45598;-72
2021/10/14 08:51:58;;;;;;;;;36.50;30.00;;;;;40.23;24.60;102557.66;5035352;28;45981;-72
2021/10/14 08:54:24;;;;;;;;;29.25;27.25;;;;;40.51;23.97;102548.19;5036223;28;45571;-72
2021/10/14 08:56:50;;;;;;;;;40.50;33.50;;;;;40.78;23.69;102552.47;5035428;28;45714;-72
2021/10/14 08:59:18;;;;;;;;;36.75;31.00;;;;;41.09;22.49;102550.75;5035821;28;45389;-72
2021/10/14 09:02:04;;;;;;;;;36.25;31.25;;;;;41.26;22.97;102543.59;5035771;28;46156;-72
2021/10/14 09:04:31;;;;;;;;;36.50;30.25;;;;;41.64;22.84;102550.84;4967699;28;45401;-72
2021/10/14 09:07:17;;;;;;;;;33.25;29.25;;;;;41.97;22.20;102548.56;4974272;28;45375;-72
2021/10/14 09:09:43;;;;;;;;;29.00;24.00;;;;;42.15;22.01;102546.84;4973957;28;45527;-72
2021/10/14 09:12:10;;;;;;;;;32.25;28.00;;;;;42.33;21.89;102551.50;4973921;28;45471;-72
2021/10/14 09:14:54;;;;;;;;;36.25;31.00;;;;;42.60;20.94;102539.03;4973695;28;45480;-72
2021/10/14 09:17:39;;;;;;;;;31.25;27.75;;;;;42.94;20.60;102544.81;4957811;28;45570;-73
2021/10/14 09:20:26;;;;;;;;;27.75;26.25;;;;;42.84;20.05;102544.56;4973827;28;45456;-72
2021/10/14 09:23:04;;;;;;;;;33.00;29.00;;;;;43.02;19.61;102535.34;4973755;28;46440;-72
2021/10/14 09:25:41;;;;;;;;;25.75;23.75;;;;;43.05;19.38;102538.50;4959632;28;45496;-72
2021/10/14 09:28:28;;;;;;;;;27.75;26.25;;;;;42.90;19.11;102541.69;4973981;28;45558;-72
2021/10/14 09:31:05;;;;;;;;;24.25;22.75;;;;;42.43;19.64;102540.72;4971072;28;45411;-71
2021/10/14 09:33:40;;;;;;;;;24.50;22.50;;;;;41.62;19.71;102536.44;4971680;28;45501;-72
2021/10/14 09:36:11;;;;;;;;;25.25;23.00;;;;;40.86;20.63;102518.25;4973376;28;45693;-72
2021/10/14 09:38:36;;;;;;;;;22.25;20.75;;;;;40.30;20.34;102527.31;4973341;28;45460;-72
2021/10/14 09:41:08;;;;;;;;;20.25;16.75;;;;;39.56;20.85;102529.47;4989422;28;45590;-72
2021/10/14 09:43:33;;;;;;;;;19.25;16.50;;;;;38.91;21.27;102520.22;5035167;28;46216;-72
2021/10/14 09:45:59;;;;;;;;;17.00;16.00;;;;;38.47;21.81;102518.88;5035603;28;45304;-72
2021/10/14 09:48:25;;;;;;;;;16.50;15.00;;;;;38.03;21.61;102516.63;5035743;28;45288;-72
2021/10/14 09:50:53;;;;;;;;;19.50;16.00;;;;;37.50;22.03;102524.56;5035136;28;45802;-73
2021/10/14 09:53:21;;;;;;;;;19.75;18.00;;;;;37.10;21.83;102522.34;5034485;28;45656;-72
2021/10/14 09:55:48;;;;;;;;;17.75;14.75;;;;;36.61;21.89;102491.31;5034772;28;45492;-72
2021/10/14 09:58:14;;;;;;;;;19.75;17.50;;;;;36.56;22.65;102513.81;5035445;28;45367;-72
2021/10/14 10:00:41;;;;;;;;;21.50;18.00;;;;;36.41;22.75;102511.13;5035633;28;45316;-71
2021/10/14 10:03:10;;;;;;;;;19.75;19.00;;;;;36.17;22.48;102508.72;5034146;28;45512;-72
2021/10/14 10:05:38;;;;;;;;;15.00;14.00;;;;;35.83;23.16;102496.50;5034259;28;45546;-72
2021/10/14 10:08:08;;;;;;;;;15.25;13.50;;;;;35.39;23.09;102488.25;5033691;28;45337;-72
2021/10/14 10:10:36;;;;;;;;;16.75;14.50;;;;;34.88;22.87;102504.47;5034879;28;45395;-72
2021/10/14 10:13:03;;;;;;;;;11.25;8.00;;;;;34.12;23.36;102492.50;5034802;28;46352;-72
2021/10/14 10:15:41;;;;;;;;;10.00;10.00;;;;;33.48;24.13;102490.69;5035253;28;45400;-72
2021/10/14 10:18:28;;;;;;;;;6.50;4.50;;;;;32.90;25.09;102493.63;5034653;28;45550;-72
2021/10/14 10:21:00;;;;;;;;;5.50;5.50;;;;;32.40;24.44;102486.41;5034850;28;45331;-72
2021/10/14 10:23:43;;;;;;;;;8.75;7.75;;;;;31.94;25.20;102478.59;5034124;28;46141;-72
2021/10/14 10:26:36;;;;;;;;;10.25;8.50;;;;;31.53;25.29;102480.28;5034519;28;45562;-72
2021/10/14 10:29:16;;;;;;;;;11.75;11.00;;;;;31.16;26.36;102477.78;5034647;28;45414;-72
2021/10/14 10:31:55;;;;;;;;;16.50;13.00;;;;;30.87;26.21;102478.94;5034726;28;45546;-72
2021/10/14 10:34:42;;;;;;;;;17.75;14.00;;;;;30.68;26.51;102470.91;5025377;28;45531;-72
2021/10/14 10:40:17;;;;;;;;;14.00;13.00;;;;;29.78;27.08;102467.22;5031776;28;45286;-72
2021/10/14 10:43:06;;;;;;;;;10.75;9.50;;;;;29.10;27.21;102464.69;5033992;28;45371;-72
2021/10/14 10:45:45;;;;;;;;;13.50;10.00;;;;;28.74;27.61;102460.84;5032763;28;45544;-72
2021/10/14 10:48:12;;;;;;;;;13.50;8.00;;;;;28.67;28.25;102462.44;5034097;28;45355;-72
2021/10/14 10:50:40;;;;;;;;;9.25;7.00;;;;;28.60;28.61;102459.41;5034386;28;45691;-72
2021/10/14 10:53:13;;;;;;;;;7.50;6.00;;;;;28.64;28.78;102464.56;5034113;28;45655;-72
2021/10/14 10:55:44;;;;;;;;;5.25;5.25;;;;;28.30;28.11;102456.81;5034151;28;46376;-72
2021/10/14 10:58:12;;;;;;;;;9.50;8.00;;;;;27.82;28.53;102453.03;5034207;28;45758;-72
2021/10/14 11:00:41;;;;;;;;;6.75;6.75;;;;;27.62;28.89;102453.03;5034789;28;45332;-72
2021/10/14 11:03:07;;;;;;;;;6.50;4.00;;;;;27.50;29.25;102452.25;5033339;28;45451;-72
2021/10/14 11:05:39;;;;;;;;;6.00;4.25;;;;;27.33;29.51;102440.25;5033284;28;45622;-72
2021/10/14 11:08:09;;;;;;;;;3.00;3.00;;;;;27.00;29.72;102435.91;5033816;28;45672;-72
2021/10/14 11:10:34;;;;;;;;;5.75;5.00;;;;;26.71;30.01;102432.97;5033986;28;45407;-72
2021/10/14 11:13:01;;;;;;;;;7.50;4.75;;;;;26.45;30.39;102417.16;5034491;28;45348;-72
2021/10/14 11:15:27;;;;;;;;;4.50;3.75;;;;;26.40;30.00;102430.13;5034076;28;45501;-72